Terminal Aerodrome Forecast
Issued by NWS

Home | Current Version | Previous Version | Graphics & Text | Print | Product List | Glossary On
Versions: 1 2 3 4 5 6 7 8 9 10 11 12 13 14 15 16 17 18 19 20 21 22 23 24 25 26
000
FTUS43 KGRB 200531
TAFCWA
TAF
KCWA 200531Z 2006/2106 12008G15KT 6SM BR SCT007
      TEMPO 2006/2010 4SM BR BKN007
     FM201000 13008KT P6SM SCT009
      TEMPO 2010/2014 5SM BR BKN009
     FM201400 17010G17KT P6SM BKN025
      TEMPO 2020/2024 3SM -TSRA OVC025CB
     FM210000 30004KT 5SM -SHRA BR BKN020=

USA.gov is the U.S. government's official web portal to all federal, state and local government web resources and services.